Time;durP1;ratioP1;P1;durP2;ratioP2;P2;SDS_P1;SDS_P2;PMS_P1;PMS_P2;Temp;Humidity;BMP_temperature;BMP_pressure;BME280_temperature;BME280_humidity;BME280_pressure;Samples;Min_cycle;Max_cycle;Signal;HPM_P1;HPM_P2
2021/06/02 00:01:18;;;;;;;10.43;6.27;;;14.90;68.80;;;;;;5052477;28;20057;-71
2021/06/02 00:03:45;;;;;;;12.90;7.73;;;14.80;68.50;;;;;;5051900;28;20110;-70
2021/06/02 00:06:10;;;;;;;10.33;6.37;;;14.80;68.30;;;;;;5052683;28;20045;-71
2021/06/02 00:08:37;;;;;;;8.90;5.57;;;14.80;68.00;;;;;;5052290;28;20371;-70
2021/06/02 00:11:05;;;;;;;10.63;4.70;;;14.70;67.30;;;;;;5051949;28;20118;-72
2021/06/02 00:13:33;;;;;;;6.03;4.67;;;14.70;67.00;;;;;;5052352;28;20049;-71
2021/06/02 00:15:59;;;;;;;6.60;4.53;;;14.60;66.60;;;;;;5052589;28;20048;-71
2021/06/02 00:18:25;;;;;;;6.47;4.60;;;14.60;66.60;;;;;;5051432;28;20095;-71
2021/06/02 00:20:51;;;;;;;6.10;4.70;;;14.50;66.40;;;;;;5052229;28;20055;-71
2021/06/02 00:23:17;;;;;;;5.77;4.70;;;14.40;66.30;;;;;;5051668;28;20056;-71
2021/06/02 00:25:43;;;;;;;5.40;3.87;;;14.40;66.10;;;;;;5051654;28;20053;-71
2021/06/02 00:28:09;;;;;;;6.83;4.47;;;14.40;65.80;;;;;;5052142;28;20055;-71
2021/06/02 00:30:36;;;;;;;6.73;4.40;;;14.30;65.30;;;;;;5051245;28;20049;-71
2021/06/02 00:33:02;;;;;;;5.73;3.83;;;14.30;65.00;;;;;;5052054;28;20140;-70
2021/06/02 00:35:28;;;;;;;5.57;4.10;;;14.30;64.70;;;;;;5051550;28;20052;-71
2021/06/02 00:37:54;;;;;;;5.37;4.53;;;14.20;64.90;;;;;;5051304;28;20052;-71
2021/06/02 00:40:49;;;;;;;4.23;3.37;;;14.20;64.70;;;;;;5051884;28;20068;-71
2021/06/02 00:43:18;;;;;;;5.30;4.13;;;14.10;64.60;;;;;;5030888;28;20044;-71
2021/06/02 00:45:44;;;;;;;4.30;3.17;;;14.10;64.70;;;;;;5051228;28;20390;-71
2021/06/02 00:48:17;;;;;;;7.27;4.10;;;14.10;64.80;;;;;;5052085;28;20049;-70
2021/06/02 00:50:48;;;;;;;5.83;3.80;;;14.10;64.80;;;;;;5051813;28;20060;-71
2021/06/02 00:53:14;;;;;;;7.73;4.37;;;14.00;65.00;;;;;;5050829;28;20444;-72
2021/06/02 00:55:41;;;;;;;4.93;3.80;;;14.00;65.40;;;;;;5051713;28;20049;-71
2021/06/02 00:58:10;;;;;;;5.90;3.80;;;13.90;65.50;;;;;;5051590;28;20131;-71
2021/06/02 01:00:36;;;;;;;6.43;3.43;;;13.90;65.70;;;;;;5050468;28;20056;-71
2021/06/02 01:03:04;;;;;;;5.33;3.70;;;13.80;65.70;;;;;;5051579;28;20049;-71
2021/06/02 01:05:30;;;;;;;4.40;3.40;;;13.80;65.70;;;;;;5051312;28;20049;-71
2021/06/02 01:08:03;;;;;;;4.77;3.60;;;13.80;65.70;;;;;;5050739;28;20049;-71
2021/06/02 01:10:30;;;;;;;5.23;3.53;;;13.80;65.90;;;;;;5051250;28;20051;-71
2021/06/02 01:12:58;;;;;;;7.00;3.67;;;13.80;65.90;;;;;;5050559;28;20134;-71
2021/06/02 01:15:25;;;;;;;5.70;3.40;;;13.80;66.00;;;;;;5051248;28;20045;-71
2021/06/02 01:17:51;;;;;;;6.90;3.30;;;13.70;66.20;;;;;;5051574;28;20059;-71
2021/06/02 01:20:18;;;;;;;6.90;3.73;;;13.60;66.40;;;;;;5050425;28;20053;-71
2021/06/02 01:22:47;;;;;;;8.60;3.67;;;13.60;66.60;;;;;;5051079;28;20049;-71
2021/06/02 01:25:19;;;;;;;5.23;3.90;;;13.60;66.90;;;;;;5050948;28;20178;-71
2021/06/02 01:27:46;;;;;;;6.87;4.17;;;13.60;67.10;;;;;;5050520;28;20381;-71
2021/06/02 01:30:22;;;;;;;6.13;4.67;;;13.60;67.30;;;;;;5051285;28;20049;-70
2021/06/02 01:33:13;;;;;;;5.73;4.77;;;13.50;67.50;;;;;;5051203;28;20063;-70
2021/06/02 01:35:51;;;;;;;5.93;4.30;;;13.50;67.50;;;;;;5050272;28;20045;-70
2021/06/02 01:38:54;;;;;;;5.67;4.50;;;13.50;67.70;;;;;;5050908;28;20049;-70
2021/06/02 01:41:28;;;;;;;5.83;4.23;;;13.50;67.90;;;;;;5049887;28;20045;-70
2021/06/02 01:44:25;;;;;;;7.77;4.77;;;13.50;68.20;;;;;;5050921;28;20053;-71
2021/06/02 01:47:20;;;;;;;7.77;4.80;;;13.50;68.50;;;;;;5050534;28;20049;-71
2021/06/02 01:50:00;;;;;;;6.27;5.03;;;13.50;68.80;;;;;;5050317;28;20053;-70
2021/06/02 01:52:57;;;;;;;6.38;3.90;;;13.50;68.80;;;;;;5050577;28;20059;-71
2021/06/02 01:55:38;;;;;;;6.50;4.90;;;13.50;69.20;;;;;;5049821;28;20053;-70
2021/06/02 01:58:34;;;;;;;6.10;4.30;;;13.40;69.20;;;;;;5051067;28;20190;-70
2021/06/02 02:01:42;;;;;;;6.60;4.83;;;13.40;69.70;;;;;;5050647;28;20533;-70
2021/06/02 02:04:42;;;;;;;6.53;5.00;;;13.50;70.00;;;;;;5036759;28;20401;-70
2021/06/02 02:07:32;;;;;;;7.37;5.07;;;13.50;70.40;;;;;;5050583;28;20132;-70
2021/06/02 02:10:25;;;;;;;6.13;4.90;;;13.50;70.50;;;;;;5050034;28;20443;-71
2021/06/02 02:13:00;;;;;;;8.03;5.73;;;13.50;70.60;;;;;;5050849;28;20486;-70
2021/06/02 02:15:42;;;;;;;6.83;5.17;;;13.50;70.60;;;;;;5050295;28;20041;-70
2021/06/02 02:18:21;;;;;;;7.50;5.57;;;13.50;70.70;;;;;;5050230;28;20056;-70
2021/06/02 02:21:08;;;;;;;6.63;5.23;;;13.50;70.80;;;;;;5050803;28;20044;-70
2021/06/02 02:23:43;;;;;;;6.70;5.70;;;13.60;70.70;;;;;;5049491;28;20460;-70
2021/06/02 02:26:35;;;;;;;8.67;5.43;;;13.50;70.80;;;;;;5050917;28;20052;-70
2021/06/02 02:29:23;;;;;;;7.00;5.13;;;13.50;71.00;;;;;;5050777;28;20049;-70
2021/06/02 02:32:17;;;;;;;6.13;4.87;;;13.60;71.10;;;;;;5049855;28;20080;-70
2021/06/02 02:34:53;;;;;;;7.13;5.60;;;13.60;71.20;;;;;;5050769;28;20389;-70
2021/06/02 02:37:25;;;;;;;9.33;5.70;;;13.60;71.30;;;;;;5049609;28;20053;-71
2021/06/02 02:40:29;;;;;;;7.30;5.50;;;13.60;71.50;;;;;;5050605;28;20070;-70
2021/06/02 02:43:32;;;;;;;7.07;5.77;;;13.60;71.80;;;;;;5050712;28;20057;-70
2021/06/02 02:46:15;;;;;;;7.37;6.20;;;13.50;71.60;;;;;;5049771;28;20045;-70
2021/06/02 02:49:07;;;;;;;9.17;5.77;;;13.60;71.80;;;;;;5050507;28;20162;-70
2021/06/02 02:51:40;;;;;;;7.95;5.90;;;13.50;72.10;;;;;;5049462;28;20517;-70
2021/06/02 02:54:15;;;;;;;7.80;6.17;;;13.60;72.10;;;;;;5050780;28;20049;-70
2021/06/02 02:56:54;;;;;;;7.60;6.30;;;13.60;72.20;;;;;;5050455;28;20057;-70
2021/06/02 02:59:39;;;;;;;8.00;6.37;;;13.60;72.50;;;;;;5051436;28;20443;-70
2021/06/02 03:02:20;;;;;;;8.33;6.50;;;13.60;72.50;;;;;;5054054;28;20458;-70
2021/06/02 03:04:55;;;;;;;8.02;6.35;;;13.60;72.80;;;;;;5053968;28;20060;-70
2021/06/02 03:07:22;;;;;;;8.63;6.60;;;13.60;73.00;;;;;;5053131;28;20120;-70
2021/06/02 03:10:06;;;;;;;8.50;7.07;;;13.60;73.00;;;;;;5053720;28;20140;-70
2021/06/02 03:13:01;;;;;;;9.90;7.63;;;13.60;73.10;;;;;;5052969;28;20128;-70
2021/06/02 03:15:42;;;;;;;12.53;7.40;;;13.70;73.60;;;;;;5053497;28;20087;-70
2021/06/02 03:18:16;;;;;;;11.35;7.63;;;13.60;73.80;;;;;;5053807;28;20068;-70
2021/06/02 03:20:54;;;;;;;9.47;7.80;;;13.70;73.80;;;;;;5053128;28;20041;-70
2021/06/02 03:23:26;;;;;;;10.23;8.40;;;13.70;73.90;;;;;;5053011;28;20061;-70
2021/06/02 03:26:14;;;;;;;11.70;8.90;;;13.70;74.00;;;;;;5053647;28;20053;-69
2021/06/02 03:29:02;;;;;;;12.93;8.47;;;13.70;74.30;;;;;;5052888;28;20124;-69
2021/06/02 03:31:49;;;;;;;10.50;8.30;;;13.70;74.70;;;;;;5053023;28;20104;-68
2021/06/02 03:34:44;;;;;;;11.40;9.23;;;13.70;74.70;;;;;;5052322;28;20066;-69
2021/06/02 03:37:28;;;;;;;11.80;7.87;;;13.70;75.00;;;;;;5053316;28;20053;-69
2021/06/02 03:40:02;;;;;;;11.70;9.47;;;13.80;75.00;;;;;;5053169;28;20064;-69
2021/06/02 03:42:41;;;;;;;10.63;8.70;;;13.80;75.00;;;;;;5052029;28;20231;-69
2021/06/02 03:45:36;;;;;;;11.33;8.10;;;13.80;75.20;;;;;;5052786;28;20132;-69
2021/06/02 03:48:35;;;;;;;10.90;8.97;;;13.90;75.40;;;;;;5052249;28;20049;-68
2021/06/02 03:51:01;;;;;;;17.03;9.97;;;13.90;75.50;;;;;;5053126;28;20179;-68
2021/06/02 03:53:36;;;;;;;11.03;8.23;;;14.00;75.40;;;;;;5052402;28;20045;-69
2021/06/02 03:56:52;;;;;;;10.07;8.23;;;14.00;75.80;;;;;;5052102;28;20102;-69
2021/06/02 03:59:51;;;;;;;12.67;9.50;;;14.00;76.30;;;;;;5009979;28;20049;-70
2021/06/02 04:02:32;;;;;;;9.63;8.03;;;14.00;76.50;;;;;;5051803;28;20080;-70
2021/06/02 04:05:30;;;;;;;10.90;8.23;;;14.10;76.70;;;;;;5052824;28;20106;-69
2021/06/02 04:08:27;;;;;;;12.07;9.27;;;14.10;76.90;;;;;;5052588;28;20190;-69
2021/06/02 04:11:18;;;;;;;11.60;10.03;;;14.10;77.10;;;;;;5051364;28;20148;-69
2021/06/02 04:13:55;;;;;;;13.00;9.20;;;14.10;77.60;;;;;;5052475;28;20135;-69
2021/06/02 04:16:23;;;;;;;13.03;10.70;;;14.20;77.80;;;;;;5051218;28;20071;-70
2021/06/02 04:18:51;;;;;;;11.17;9.57;;;14.20;78.00;;;;;;5052490;28;20429;-69
2021/06/02 04:21:20;;;;;;;11.50;10.30;;;14.20;77.90;;;;;;5052219;28;20049;-69
2021/06/02 04:23:46;;;;;;;10.63;9.53;;;14.20;78.30;;;;;;5051531;28;20057;-69
2021/06/02 04:26:13;;;;;;;12.83;10.90;;;14.30;78.60;;;;;;5052123;28;20045;-69
2021/06/02 04:28:39;;;;;;;13.30;10.73;;;14.30;78.60;;;;;;5052236;28;20131;-70
2021/06/02 04:31:13;;;;;;;12.97;10.60;;;14.40;78.70;;;;;;5051391;28;20049;-69
2021/06/02 04:33:40;;;;;;;12.40;10.73;;;14.50;79.10;;;;;;5052406;28;20041;-69
2021/06/02 04:36:10;;;;;;;13.53;10.50;;;14.60;78.90;;;;;;5052057;28;20072;-69
2021/06/02 04:38:36;;;;;;;12.63;10.70;;;14.70;78.60;;;;;;5050875;28;20390;-69
2021/06/02 04:41:05;;;;;;;16.80;12.67;;;14.80;78.50;;;;;;5051927;28;20044;-69
2021/06/02 04:43:38;;;;;;;12.85;10.88;;;14.90;78.60;;;;;;5051688;28;20209;-68
2021/06/02 04:46:06;;;;;;;13.43;11.73;;;15.10;78.30;;;;;;5051443;28;20045;-69
2021/06/02 04:48:35;;;;;;;15.47;11.37;;;15.20;77.80;;;;;;5033787;28;20049;-69
2021/06/02 04:51:28;;;;;;;12.07;9.83;;;15.20;78.00;;;;;;5050922;28;20059;-69
2021/06/02 04:53:57;;;;;;;12.77;11.03;;;15.10;78.20;;;;;;5051750;28;20569;-69
2021/06/02 04:56:53;;;;;;;13.07;11.67;;;15.00;78.40;;;;;;5051282;28;20413;-69
2021/06/02 04:59:37;;;;;;;15.60;12.13;;;15.00;78.20;;;;;;5050505;28;20084;-69
2021/06/02 05:02:21;;;;;;;13.30;10.87;;;15.00;78.10;;;;;;5051101;28;20174;-69
2021/06/02 05:05:20;;;;;;;13.33;10.47;;;15.00;77.40;;;;;;5050848;28;20123;-69
2021/06/02 05:07:46;;;;;;;13.50;10.07;;;15.00;76.90;;;;;;5051131;28;20132;-69
2021/06/02 05:10:30;;;;;;;12.73;10.50;;;15.00;76.70;;;;;;5050992;28;20495;-69
2021/06/02 05:13:10;;;;;;;13.67;10.20;;;15.00;76.10;;;;;;5050637;28;20106;-69
2021/06/02 05:16:30;;;;;;;12.57;10.23;;;15.10;75.90;;;;;;5050933;28;20048;-69
2021/06/02 05:22:36;;;;;;;11.53;9.47;;;15.20;74.70;;;;;;5050090;28;20057;-70
2021/06/02 05:25:18;;;;;;;13.90;10.17;;;15.30;74.40;;;;;;5050733;28;20200;-69
2021/06/02 05:28:21;;;;;;;14.10;9.93;;;15.30;74.40;;;;;;5050195;28;20125;-69
2021/06/02 05:31:26;;;;;;;11.43;8.67;;;15.30;74.00;;;;;;5050640;28;20049;-70
2021/06/02 05:34:27;;;;;;;12.57;9.63;;;15.40;73.50;;;;;;5050202;28;20516;-69
2021/06/02 05:37:21;;;;;;;11.95;8.75;;;15.30;73.10;;;;;;5004514;28;20135;-70
2021/06/02 05:40:15;;;;;;;10.47;8.10;;;15.30;73.20;;;;;;5050454;28;20045;-69
2021/06/02 05:43:08;;;;;;;11.57;8.87;;;15.20;73.30;;;;;;5050789;28;20055;-69
2021/06/02 05:46:00;;;;;;;11.47;9.60;;;15.10;73.40;;;;;;5050357;28;20049;-69
2021/06/02 05:49:04;;;;;;;13.82;9.68;;;15.00;74.90;;;;;;5049951;28;20049;-69
2021/06/02 05:52:20;;;;;;;12.97;9.30;;;15.00;74.70;;;;;;5050222;28;20186;-69
2021/06/02 05:55:07;;;;;;;11.37;8.80;;;15.10;74.80;;;;;;4949456;29;20051;-69
2021/06/02 05:58:01;;;;;;;11.77;8.20;;;15.30;74.40;;;;;;4950126;29;20070;-69
2021/06/02 06:01:08;;;;;;;12.57;8.27;;;15.40;72.80;;;;;;5030367;28;20049;-68
2021/06/02 06:04:05;;;;;;;9.03;8.07;;;15.50;72.20;;;;;;5049810;28;20084;-69
2021/06/02 06:06:49;;;;;;;10.10;8.53;;;15.60;72.10;;;;;;5049950;28;20049;-69
2021/06/02 06:09:33;;;;;;;11.50;8.47;;;15.60;72.40;;;;;;5048937;28;20474;-70
2021/06/02 06:12:40;;;;;;;12.17;9.20;;;15.70;72.30;;;;;;5050469;28;20139;-69
2021/06/02 06:15:46;;;;;;;12.63;8.37;;;15.80;71.90;;;;;;5050007;28;20053;-69
2021/06/02 06:18:30;;;;;;;11.37;9.30;;;15.80;71.70;;;;;;5050238;28;20045;-70
2021/06/02 06:21:07;;;;;;;13.47;9.33;;;15.90;71.60;;;;;;5050096;28;20088;-69
2021/06/02 06:24:12;;;;;;;13.60;9.17;;;15.90;71.70;;;;;;5048730;28;20068;-69
2021/06/02 06:27:13;;;;;;;16.90;9.37;;;16.00;71.60;;;;;;5050129;28;20555;-69
2021/06/02 06:30:14;;;;;;;11.43;9.10;;;16.00;71.80;;;;;;5049461;28;20516;-69
2021/06/02 06:32:44;;;;;;;10.82;9.73;;;16.20;72.00;;;;;;5051523;28;20148;-69
2021/06/02 06:35:11;;;;;;;14.63;9.23;;;16.40;71.50;;;;;;5053745;28;20136;-69
2021/06/02 06:37:42;;;;;;;11.77;9.43;;;16.50;71.30;;;;;;5052988;28;20425;-69
2021/06/02 06:40:10;;;;;;;12.17;9.03;;;16.60;71.40;;;;;;5053654;28;20126;-69
2021/06/02 06:42:41;;;;;;;15.10;9.90;;;16.70;71.10;;;;;;5053332;28;20342;-69
2021/06/02 06:45:16;;;;;;;11.60;8.65;;;16.80;70.40;;;;;;5053000;28;20049;-69
2021/06/02 06:47:50;;;;;;;12.23;9.17;;;16.80;69.90;;;;;;5053952;28;20056;-69
2021/06/02 06:50:17;;;;;;;10.63;9.30;;;16.80;69.50;;;;;;5053194;28;20045;-69
2021/06/02 06:52:49;;;;;;;9.80;7.93;;;16.90;69.20;;;;;;5053390;28;20064;-69
2021/06/02 06:55:15;;;;;;;12.43;7.95;;;16.90;68.90;;;;;;5053342;28;20075;-70
2021/06/02 06:57:43;;;;;;;13.27;9.00;;;17.00;68.50;;;;;;5052982;28;20106;-70
2021/06/02 07:00:11;;;;;;;10.60;8.10;;;17.10;67.90;;;;;;5053433;28;20045;-70
2021/06/02 07:02:39;;;;;;;10.10;8.50;;;17.20;67.50;;;;;;5053076;28;20099;-69
2021/06/02 07:05:06;;;;;;;10.53;8.70;;;17.20;67.40;;;;;;5052016;28;20140;-69
2021/06/02 07:07:35;;;;;;;14.73;8.83;;;17.30;67.50;;;;;;5052872;28;20431;-69
2021/06/02 07:10:02;;;;;;;12.77;9.43;;;17.30;68.00;;;;;;5053114;28;20053;-70
2021/06/02 07:12:30;;;;;;;9.53;7.77;;;17.40;68.10;;;;;;5052383;28;20041;-70
2021/06/02 07:14:56;;;;;;;10.67;8.63;;;17.60;68.10;;;;;;5053062;28;20091;-69
2021/06/02 07:17:23;;;;;;;10.07;8.23;;;17.70;67.60;;;;;;5052796;28;20440;-70
2021/06/02 07:19:57;;;;;;;8.50;6.90;;;17.80;66.50;;;;;;5052133;28;20052;-70
2021/06/02 07:22:24;;;;;;;9.77;7.23;;;17.90;66.00;;;;;;5052860;28;20122;-70
2021/06/02 07:24:58;;;;;;;10.23;7.53;;;18.00;66.40;;;;;;5052773;28;20084;-68
2021/06/02 07:27:24;;;;;;;9.13;6.80;;;18.20;65.30;;;;;;5052130;28;20045;-70
2021/06/02 07:29:50;;;;;;;9.67;7.23;;;18.30;64.50;;;;;;5052683;28;20151;-69
2021/06/02 07:32:16;;;;;;;10.43;6.97;;;18.30;64.20;;;;;;5052266;28;20145;-70
2021/06/02 07:34:41;;;;;;;8.87;6.80;;;18.40;63.40;;;;;;5052419;28;20059;-69
2021/06/02 07:37:16;;;;;;;9.93;6.27;;;18.50;62.90;;;;;;5052948;28;20331;-70
2021/06/02 07:39:42;;;;;;;10.30;7.17;;;18.50;62.40;;;;;;5052374;28;20053;-69
2021/06/02 07:42:08;;;;;;;8.47;6.20;;;18.60;61.90;;;;;;5053065;28;20048;-69
2021/06/02 07:44:33;;;;;;;8.43;6.67;;;18.60;61.40;;;;;;5050861;28;20482;-70
2021/06/02 07:46:59;;;;;;;10.53;6.77;;;18.70;60.50;;;;;;5051853;28;20439;-70
2021/06/02 07:49:25;;;;;;;9.60;6.27;;;18.70;60.10;;;;;;5052450;28;20141;-70
2021/06/02 07:51:54;;;;;;;8.30;6.30;;;18.60;60.10;;;;;;5052854;28;20072;-69
2021/06/02 07:54:23;;;;;;;10.00;6.10;;;18.70;60.90;;;;;;5051722;28;20111;-70
2021/06/02 07:56:49;;;;;;;9.50;7.13;;;18.70;61.10;;;;;;5052745;28;20045;-70
2021/06/02 07:59:15;;;;;;;8.43;6.30;;;18.70;60.30;;;;;;5052359;28;20049;-70
2021/06/02 08:01:40;;;;;;;7.70;6.23;;;18.70;60.10;;;;;;5051406;28;20048;-70
2021/06/02 08:04:06;;;;;;;6.77;5.50;;;18.70;60.20;;;;;;5052522;28;20071;-69
2021/06/02 08:06:32;;;;;;;7.40;5.13;;;18.70;59.80;;;;;;5052127;28;20083;-70
2021/06/02 08:08:57;;;;;;;7.90;4.70;;;18.70;60.00;;;;;;5051778;28;20051;-69
2021/06/02 08:11:23;;;;;;;7.17;4.23;;;18.80;59.90;;;;;;5052102;28;20064;-71
2021/06/02 08:13:49;;;;;;;5.77;4.60;;;19.00;59.40;;;;;;5052412;28;20049;-70
2021/06/02 08:16:18;;;;;;;5.77;3.93;;;19.50;58.90;;;;;;5051647;28;20059;-71
2021/06/02 08:18:43;;;;;;;6.17;4.10;;;19.80;57.10;;;;;;5052494;28;20135;-71
2021/06/02 08:21:09;;;;;;;6.80;3.83;;;20.00;56.20;;;;;;5052427;28;20076;-71
2021/06/02 08:23:35;;;;;;;5.77;4.20;;;20.10;55.90;;;;;;5051090;28;20057;-71
2021/06/02 08:26:01;;;;;;;5.23;3.70;;;20.20;55.40;;;;;;5052292;28;20056;-71
2021/06/02 08:28:27;;;;;;;5.33;3.37;;;20.30;54.40;;;;;;5051623;28;20072;-70
2021/06/02 08:30:52;;;;;;;4.60;3.50;;;20.40;53.70;;;;;;5051692;28;20076;-71
2021/06/02 08:33:18;;;;;;;7.00;3.07;;;20.60;53.10;;;;;;5052130;28;20060;-71
2021/06/02 08:35:53;;;;;;;6.93;3.97;;;20.60;52.90;;;;;;5052246;28;20041;-71
2021/06/02 08:38:19;;;;;;;5.23;4.23;;;20.70;52.30;;;;;;5051846;28;20102;-72
2021/06/02 08:40:44;;;;;;;5.60;3.90;;;20.60;52.50;;;;;;5051774;28;20135;-71
2021/06/02 08:43:17;;;;;;;7.10;4.03;;;20.70;52.30;;;;;;5051441;28;20134;-71
2021/06/02 08:45:43;;;;;;;6.13;4.33;;;20.80;52.30;;;;;;5051526;28;20053;-71
2021/06/02 08:48:08;;;;;;;7.73;4.37;;;21.00;53.10;;;;;;5051605;28;20128;-71
2021/06/02 08:50:34;;;;;;;6.50;4.37;;;21.00;52.80;;;;;;5050868;28;20481;-71
2021/06/02 08:53:03;;;;;;;6.50;4.50;;;21.00;52.70;;;;;;5051330;28;20048;-71
2021/06/02 08:55:29;;;;;;;6.97;4.43;;;21.00;52.40;;;;;;5051033;28;20093;-71
2021/06/02 08:57:56;;;;;;;6.50;4.83;;;21.00;51.90;;;;;;5050952;28;20064;-71
2021/06/02 09:00:23;;;;;;;7.00;4.07;;;20.90;51.30;;;;;;5050927;28;20057;-71
2021/06/02 09:02:53;;;;;;;6.83;4.77;;;20.90;51.70;;;;;;5051602;28;20045;-71
2021/06/02 09:05:20;;;;;;;6.60;4.30;;;20.90;52.00;;;;;;5050531;28;20061;-71
2021/06/02 09:07:50;;;;;;;5.83;4.80;;;20.90;51.90;;;;;;5051398;28;20053;-71
2021/06/02 09:10:17;;;;;;;6.57;5.40;;;21.00;52.40;;;;;;5051000;28;20183;-72
2021/06/02 09:12:43;;;;;;;8.17;5.57;;;21.00;52.20;;;;;;5050837;28;20114;-71
2021/06/02 09:15:19;;;;;;;8.77;5.47;;;21.10;52.80;;;;;;5051288;28;20490;-71
2021/06/02 09:17:56;;;;;;;7.30;5.90;;;21.20;53.10;;;;;;5051291;28;20147;-71
2021/06/02 09:20:40;;;;;;;6.63;5.70;;;21.30;53.50;;;;;;5050203;28;20092;-72
2021/06/02 09:23:25;;;;;;;7.35;5.57;;;21.40;53.90;;;;;;5051393;28;20129;-75
2021/06/02 09:25:50;;;;;;;7.53;6.40;;;21.70;54.50;;;;;;5050398;28;20041;-70
2021/06/02 09:28:21;;;;;;;9.05;6.45;;;21.70;54.50;;;;;;5050849;28;20063;-70
2021/06/02 09:30:46;;;;;;;10.10;6.53;;;21.90;53.30;;;;;;5051121;28;20508;-70
2021/06/02 09:33:12;;;;;;;9.57;5.97;;;22.00;52.80;;;;;;5050166;28;20049;-70
2021/06/02 09:35:40;;;;;;;8.68;6.00;;;22.00;52.40;;;;;;5051117;28;20106;-70
2021/06/02 09:38:07;;;;;;;8.38;6.15;;;22.10;52.50;;;;;;5050970;28;20049;-70
2021/06/02 09:40:35;;;;;;;8.80;6.97;;;22.20;51.90;;;;;;5050031;28;20056;-71
2021/06/02 09:43:01;;;;;;;8.70;6.57;;;22.20;51.70;;;;;;5050896;28;20127;-71
2021/06/02 09:45:27;;;;;;;8.65;6.38;;;22.20;51.70;;;;;;5050504;28;20490;-70
2021/06/02 09:47:56;;;;;;;7.43;6.32;;;22.20;51.70;;;;;;5050336;28;20041;-70
2021/06/02 09:50:35;;;;;;;9.75;6.78;;;22.40;51.70;;;;;;5050760;28;20055;-70
2021/06/02 09:53:05;;;;;;;7.83;5.80;;;22.50;51.30;;;;;;5050759;28;20045;-70
2021/06/02 09:55:39;;;;;;;7.53;5.32;;;22.60;51.30;;;;;;5049701;28;20114;-71
2021/06/02 09:58:09;;;;;;;6.70;5.15;;;22.50;51.10;;;;;;5050505;28;20148;-71
2021/06/02 10:00:44;;;;;;;6.93;5.63;;;22.40;50.70;;;;;;5049375;28;20083;-71
2021/06/02 10:03:15;;;;;;;9.90;5.67;;;22.40;51.10;;;;;;5049969;28;20045;-70
2021/06/02 10:05:43;;;;;;;7.93;5.40;;;22.30;51.10;;;;;;5049074;28;20052;-70
2021/06/02 10:08:11;;;;;;;7.00;5.47;;;22.30;50.80;;;;;;5050240;28;20045;-70
2021/06/02 10:10:38;;;;;;;11.73;5.10;;;22.40;50.30;;;;;;5052618;28;20053;-70
2021/06/02 10:13:10;;;;;;;7.67;5.57;;;22.40;49.80;;;;;;5053671;28;20044;-71
2021/06/02 10:15:45;;;;;;;7.33;5.80;;;22.40;49.10;;;;;;5053529;28;20080;-71
2021/06/02 10:18:32;;;;;;;8.30;5.20;;;22.40;49.40;;;;;;5055004;28;20056;-72
2021/06/02 10:21:09;;;;;;;7.47;4.93;;;22.50;50.60;;;;;;5053808;28;20129;-70
2021/06/02 10:23:40;;;;;;;9.77;5.07;;;22.60;49.80;;;;;;5050482;28;20057;-71
2021/06/02 10:26:07;;;;;;;6.20;4.85;;;22.70;49.90;;;;;;5051695;28;20143;-71
2021/06/02 10:28:33;;;;;;;8.17;4.50;;;22.70;49.30;;;;;;5051389;28;20060;-71
2021/06/02 10:31:04;;;;;;;7.40;5.70;;;22.80;49.30;;;;;;5052157;28;20065;-71
2021/06/02 10:33:31;;;;;;;7.85;5.20;;;22.80;48.80;;;;;;5052536;28;20059;-71
2021/06/02 10:35:58;;;;;;;7.30;4.60;;;22.70;50.20;;;;;;5051476;28;20095;-71
2021/06/02 10:38:26;;;;;;;7.47;4.90;;;22.70;49.40;;;;;;5053689;28;20378;-71
2021/06/02 10:40:53;;;;;;;6.23;4.67;;;22.70;49.50;;;;;;5053972;28;20405;-70
2021/06/02 10:43:23;;;;;;;5.77;4.43;;;22.70;50.30;;;;;;5053174;28;20383;-71
2021/06/02 10:46:05;;;;;;;7.93;5.70;;;22.90;50.50;;;;;;5053917;28;20075;-71
2021/06/02 10:48:49;;;;;;;7.77;5.17;;;22.90;49.20;;;;;;5053760;28;20045;-71
2021/06/02 10:51:43;;;;;;;9.13;4.87;;;22.90;49.60;;;;;;5052845;28;20075;-72
2021/06/02 10:54:13;;;;;;;7.18;5.38;;;23.00;49.40;;;;;;5053591;28;20367;-71
2021/06/02 10:56:41;;;;;;;6.17;4.90;;;23.10;48.70;;;;;;5053037;28;20405;-71
2021/06/02 10:59:26;;;;;;;6.33;4.57;;;23.10;48.40;;;;;;5053755;28;20115;-71
2021/06/02 11:02:08;;;;;;;9.25;5.20;;;23.20;49.50;;;;;;5053811;28;20111;-71
2021/06/02 11:04:37;;;;;;;9.48;5.93;;;23.30;49.50;;;;;;5052644;28;20044;-71
2021/06/02 11:07:26;;;;;;;6.80;5.60;;;23.50;48.80;;;;;;5053939;28;20049;-71
2021/06/02 11:09:58;;;;;;;9.05;4.80;;;23.50;48.00;;;;;;5053482;28;20045;-71
2021/06/02 11:12:25;;;;;;;8.38;5.40;;;23.60;47.60;;;;;;5052520;28;20429;-71
2021/06/02 11:14:52;;;;;;;7.70;4.93;;;23.70;46.70;;;;;;5053229;28;20452;-71
2021/06/02 11:17:19;;;;;;;6.90;4.35;;;23.80;46.50;;;;;;5053258;28;20099;-71
2021/06/02 11:19:51;;;;;;;7.15;5.35;;;23.90;46.70;;;;;;5051315;28;20442;-71
2021/06/02 11:22:27;;;;;;;7.85;4.53;;;23.90;45.50;;;;;;5052860;28;20462;-70
2021/06/02 11:24:55;;;;;;;6.53;4.47;;;24.10;46.20;;;;;;5052540;28;20179;-71
2021/06/02 11:27:20;;;;;;;7.45;3.83;;;24.10;46.00;;;;;;5052868;28;20045;-71
2021/06/02 11:29:51;;;;;;;5.53;4.10;;;24.00;46.60;;;;;;5053273;28;20436;-71
2021/06/02 11:32:27;;;;;;;6.30;3.80;;;23.90;46.80;;;;;;5052245;28;20095;-71
2021/06/02 11:34:58;;;;;;;6.03;4.40;;;23.80;47.40;;;;;;5053083;28;20063;-71
2021/06/02 11:37:28;;;;;;;;;;;23.60;46.90;;;;;;5053377;28;20075;-71
2021/06/02 11:39:57;;;;;;;6.43;4.32;;;23.50;47.90;;;;;;5052220;28;19959;-71
2021/06/02 11:42:41;;;;;;;8.60;4.45;;;23.40;47.80;;;;;;5052782;28;20045;-71
2021/06/02 11:45:15;;;;;;;5.78;4.53;;;23.40;47.50;;;;;;5052964;28;20053;-71
2021/06/02 11:47:49;;;;;;;7.72;4.05;;;23.40;47.00;;;;;;5052291;28;20082;-71
2021/06/02 11:50:21;;;;;;;8.45;4.57;;;23.50;47.50;;;;;;5052457;28;20048;-71
2021/06/02 11:52:55;;;;;;;7.22;4.50;;;23.50;47.50;;;;;;5052403;28;20045;-71
2021/06/02 11:55:23;;;;;;;7.53;5.80;;;23.60;47.80;;;;;;5052336;28;20056;-71
2021/06/02 11:57:53;;;;;;;7.22;4.35;;;23.70;46.70;;;;;;5053444;28;20049;-71
2021/06/02 12:00:20;;;;;;;6.03;4.05;;;23.80;46.80;;;;;;5051586;28;20041;-71
2021/06/02 12:02:54;;;;;;;7.90;5.00;;;23.90;47.30;;;;;;5052294;28;20132;-71
2021/06/02 12:05:24;;;;;;;6.50;5.07;;;24.00;47.20;;;;;;5052131;28;20148;-71
2021/06/02 12:08:17;;;;;;;7.75;5.28;;;24.00;46.10;;;;;;5051868;28;20051;-71
2021/06/02 12:10:47;;;;;;;7.78;4.15;;;24.10;45.80;;;;;;5047182;28;20059;-71
2021/06/02 12:13:23;;;;;;;8.63;4.43;;;24.10;46.30;;;;;;5051862;28;20075;-71
2021/06/02 12:15:54;;;;;;;7.57;4.90;;;24.10;46.50;;;;;;5051598;28;20052;-71
2021/06/02 12:18:36;;;;;;;5.90;4.28;;;24.10;45.90;;;;;;5052207;28;20056;-72
2021/06/02 12:21:13;;;;;;;5.20;3.78;;;24.10;45.70;;;;;;5051597;28;20049;-72
2021/06/02 12:23:56;;;;;;;9.05;4.15;;;24.20;45.70;;;;;;5051811;28;20053;-71
2021/06/02 12:26:26;;;;;;;6.80;5.40;;;24.20;45.90;;;;;;5051847;28;20060;-71
2021/06/02 12:28:52;;;;;;;7.85;4.03;;;24.30;45.00;;;;;;5051322;28;20045;-71
2021/06/02 12:31:36;;;;;;;6.07;4.53;;;24.20;45.40;;;;;;5051145;28;20156;-72
2021/06/02 12:34:08;;;;;;;7.32;4.28;;;24.20;44.50;;;;;;5051518;28;20132;-71
2021/06/02 12:36:34;;;;;;;6.65;4.43;;;24.20;44.40;;;;;;5050861;28;20055;-71
2021/06/02 12:39:05;;;;;;;5.55;4.35;;;24.10;44.70;;;;;;5052056;28;20401;-71
2021/06/02 12:41:31;;;;;;;6.50;4.57;;;24.10;44.30;;;;;;5051573;28;20056;-71
2021/06/02 12:44:02;;;;;;;6.35;4.20;;;24.20;44.00;;;;;;5050843;28;20477;-71
2021/06/02 12:46:28;;;;;;;6.45;3.65;;;24.30;44.40;;;;;;5051615;28;20056;-71
2021/06/02 12:48:55;;;;;;;5.20;3.88;;;24.40;44.50;;;;;;5051499;28;20049;-71
2021/06/02 12:51:25;;;;;;;7.13;4.55;;;24.50;44.20;;;;;;5051268;28;20093;-71
2021/06/02 12:53:52;;;;;;;7.93;4.22;;;24.60;43.60;;;;;;5051157;28;20053;-71
2021/06/02 12:56:19;;;;;;;7.63;4.00;;;24.70;43.70;;;;;;5050448;28;20151;-71
2021/06/02 12:58:53;;;;;;;7.05;4.00;;;24.70;43.80;;;;;;5051102;28;20151;-71
2021/06/02 13:01:21;;;;;;;6.93;4.20;;;24.80;44.30;;;;;;5051100;28;20049;-71
2021/06/02 13:03:48;;;;;;;7.97;4.45;;;24.70;43.60;;;;;;5050514;28;20405;-71
2021/06/02 13:06:16;;;;;;;6.55;4.40;;;24.70;43.20;;;;;;5051029;28;20056;-71
2021/06/02 13:08:42;;;;;;;9.15;4.60;;;24.70;44.20;;;;;;5051436;28;20060;-71
2021/06/02 13:11:11;;;;;;;7.07;4.30;;;24.70;43.50;;;;;;5050647;28;20052;-70
2021/06/02 13:13:38;;;;;;;8.27;4.97;;;24.60;43.30;;;;;;5050763;28;20056;-71
2021/06/02 13:16:06;;;;;;;6.55;4.22;;;24.50;43.20;;;;;;5050897;28;20106;-71
2021/06/02 13:18:32;;;;;;;9.20;4.63;;;24.40;43.50;;;;;;5050178;28;20071;-70
2021/06/02 13:21:13;;;;;;;7.90;4.53;;;24.40;43.40;;;;;;5051127;28;20482;-71
2021/06/02 13:23:39;;;;;;;6.32;4.40;;;24.30;43.60;;;;;;5050827;28;20049;-71
2021/06/02 13:26:07;;;;;;;5.65;3.88;;;24.30;43.90;;;;;;5050170;28;20127;-71
2021/06/02 13:28:43;;;;;;;6.57;4.75;;;24.30;44.50;;;;;;5050765;28;20148;-71